Time;durP1;ratioP1;P1;durP2;ratioP2;P2;SDS_P1;SDS_P2;PMS_P1;PMS_P2;Temp;Humidity;BMP_temperature;BMP_pressure;BME280_temperature;BME280_humidity;BME280_pressure;Samples;Min_cycle;Max_cycle;Signal;HPM_P1;HPM_P2
2021/12/09 00:01:39;;;;;;;13.32;10.68;;;5.80;99.90;;;;;;5068360;28;20107;-83
2021/12/09 00:04:09;;;;;;;12.75;11.00;;;5.30;99.90;;;;;;5068457;28;20032;-83
2021/12/09 00:06:36;;;;;;;13.52;11.50;;;5.20;99.90;;;;;;5068439;28;20020;-83
2021/12/09 00:09:12;;;;;;;13.73;11.07;;;5.30;99.90;;;;;;5068427;28;20503;-83
2021/12/09 00:11:45;;;;;;;13.20;11.27;;;5.80;99.90;;;;;;5036952;28;20022;-83
2021/12/09 00:14:16;;;;;;;17.42;13.40;;;5.90;99.90;;;;;;5066209;28;20032;-82
2021/12/09 00:16:42;;;;;;;15.45;12.77;;;5.80;99.90;;;;;;5070968;28;20032;-83
2021/12/09 00:19:08;;;;;;;17.23;14.73;;;5.90;99.90;;;;;;5066665;28;20070;-83
2021/12/09 00:21:34;;;;;;;21.75;17.13;;;5.40;99.90;;;;;;5067813;28;20040;-83
2021/12/09 00:24:00;;;;;;;30.08;21.88;;;5.60;99.90;;;;;;5068483;28;20017;-83
2021/12/09 00:26:25;;;;;;;26.52;20.73;;;5.40;99.90;;;;;;5069929;28;20549;-83
2021/12/09 00:28:51;;;;;;;18.60;15.43;;;5.80;99.90;;;;;;5072174;28;20044;-83
2021/12/09 00:31:18;;;;;;;17.55;13.77;;;5.30;99.90;;;;;;5068420;28;20044;-83
2021/12/09 00:33:45;;;;;;;16.38;13.57;;;5.30;99.90;;;;;;5067169;28;20044;-83
2021/12/09 00:36:14;;;;;;;15.63;13.75;;;5.30;99.90;;;;;;5068231;28;20032;-83
2021/12/09 00:38:41;;;;;;;17.85;13.50;;;5.90;99.90;;;;;;5068089;28;20010;-83
2021/12/09 00:41:10;;;;;;;16.20;13.40;;;5.70;99.90;;;;;;5055182;28;20055;-83
2021/12/09 00:43:37;;;;;;;17.70;14.52;;;5.30;99.90;;;;;;5066676;28;20488;-83
2021/12/09 00:46:04;;;;;;;17.42;14.20;;;6.00;99.90;;;;;;5068000;28;20039;-83
2021/12/09 00:48:29;;;;;;;16.50;12.77;;;5.40;99.90;;;;;;5067565;28;20048;-83
2021/12/09 00:50:56;;;;;;;17.35;13.88;;;5.40;99.90;;;;;;5067736;28;20025;-83
2021/12/09 00:53:22;;;;;;;17.35;13.90;;;5.50;99.90;;;;;;5070671;28;20415;-82
2021/12/09 00:55:48;;;;;;;16.27;13.80;;;5.40;99.90;;;;;;5069368;28;20235;-83
2021/12/09 00:58:15;;;;;;;15.63;13.30;;;5.90;99.90;;;;;;5065896;28;20032;-83
2021/12/09 01:00:41;;;;;;;15.10;13.48;;;6.00;99.90;;;;;;5067284;28;20505;-82
2021/12/09 01:03:06;;;;;;;17.65;14.57;;;5.40;99.90;;;;;;5067580;28;20167;-83
2021/12/09 01:05:32;;;;;;;19.65;15.23;;;5.90;99.90;;;;;;5068537;28;20021;-82
2021/12/09 01:07:58;;;;;;;16.13;14.07;;;5.90;99.90;;;;;;5072700;28;20028;-83
2021/12/09 01:10:24;;;;;;;18.10;14.68;;;5.40;99.90;;;;;;5066745;28;20113;-83
2021/12/09 01:12:50;;;;;;;17.70;14.68;;;5.50;99.90;;;;;;5067179;28;20021;-83
2021/12/09 01:15:18;;;;;;;18.60;15.35;;;5.50;99.90;;;;;;5067729;28;20032;-83
2021/12/09 01:17:46;;;;;;;20.02;15.88;;;5.50;99.90;;;;;;5067335;28;20402;-83
2021/12/09 01:20:13;;;;;;;18.83;16.05;;;5.50;99.90;;;;;;5072090;28;20028;-83
2021/12/09 01:22:43;;;;;;;23.10;17.58;;;5.50;99.90;;;;;;5068345;28;20036;-83
2021/12/09 01:25:11;;;;;;;24.52;18.17;;;6.20;99.90;;;;;;5066649;28;20115;-83
2021/12/09 01:27:40;;;;;;;22.33;17.63;;;6.00;99.90;;;;;;5066749;28;20028;-83
2021/12/09 01:30:12;;;;;;;23.10;17.63;;;5.50;99.90;;;;;;5066852;28;20443;-82
2021/12/09 01:32:42;;;;;;;22.02;16.80;;;5.50;99.90;;;;;;5035850;28;20084;-83
2021/12/09 01:35:08;;;;;;;22.73;17.30;;;5.40;99.90;;;;;;5064798;28;20040;-83
2021/12/09 01:37:35;;;;;;;21.10;17.23;;;5.50;99.90;;;;;;5067079;28;20070;-82
2021/12/09 01:40:03;;;;;;;23.40;18.65;;;6.00;99.90;;;;;;5066207;28;20043;-83
2021/12/09 01:42:28;;;;;;;23.08;17.85;;;6.10;99.90;;;;;;5066714;28;20025;-83
2021/12/09 01:44:54;;;;;;;21.08;17.80;;;5.50;99.90;;;;;;5066507;28;20082;-83
2021/12/09 01:47:20;;;;;;;23.88;18.48;;;5.50;99.90;;;;;;5069720;28;20013;-83
2021/12/09 01:49:45;;;;;;;20.90;16.98;;;6.00;99.90;;;;;;5069598;28;20051;-83
2021/12/09 01:52:11;;;;;;;22.17;17.05;;;5.90;99.90;;;;;;5066704;28;20093;-83
2021/12/09 01:54:37;;;;;;;23.63;16.95;;;5.50;99.90;;;;;;5065804;28;20448;-83
2021/12/09 01:57:03;;;;;;;22.80;16.30;;;6.00;99.90;;;;;;5066348;28;20024;-83
2021/12/09 01:59:28;;;;;;;20.55;16.60;;;5.50;99.90;;;;;;5067819;28;20066;-83
2021/12/09 02:01:54;;;;;;;19.95;16.33;;;6.10;99.90;;;;;;5071179;28;20032;-83
2021/12/09 02:04:20;;;;;;;22.77;17.15;;;5.50;99.90;;;;;;5066307;28;20570;-83
2021/12/09 02:06:46;;;;;;;22.95;17.90;;;5.60;99.90;;;;;;5066060;28;20533;-82
2021/12/09 02:09:14;;;;;;;19.95;16.73;;;6.20;99.90;;;;;;5065841;28;20033;-83
2021/12/09 02:11:41;;;;;;;21.02;16.92;;;5.60;99.90;;;;;;5066512;28;20021;-83
2021/12/09 02:14:07;;;;;;;22.38;17.33;;;6.20;99.90;;;;;;5072252;28;20060;-83
2021/12/09 02:16:33;;;;;;;21.67;17.15;;;5.60;99.90;;;;;;5064504;28;20082;-83
2021/12/09 02:19:00;;;;;;;22.40;17.02;;;5.60;99.90;;;;;;5065782;28;20082;-83
2021/12/09 02:21:29;;;;;;;21.50;17.27;;;6.20;99.90;;;;;;5066255;28;20403;-83
2021/12/09 02:23:59;;;;;;;20.17;17.00;;;5.60;99.90;;;;;;5065604;28;20436;-82
2021/12/09 02:26:28;;;;;;;22.10;17.15;;;5.70;99.90;;;;;;5067708;28;20040;-83
2021/12/09 02:28:55;;;;;;;20.60;16.13;;;6.30;99.90;;;;;;5070489;28;20072;-82
2021/12/09 02:31:22;;;;;;;18.30;16.00;;;5.50;99.90;;;;;;5061353;28;20032;-82
2021/12/09 02:33:48;;;;;;;19.60;16.15;;;5.50;99.90;;;;;;5065484;28;20489;-82
2021/12/09 02:36:15;;;;;;;23.30;16.70;;;6.10;99.90;;;;;;5065907;28;20529;-83
2021/12/09 02:38:43;;;;;;;22.67;16.90;;;5.60;99.90;;;;;;5065234;28;20397;-83
2021/12/09 02:41:16;;;;;;;21.67;17.10;;;6.00;99.90;;;;;;5053677;28;20389;-83
2021/12/09 02:43:48;;;;;;;22.05;16.90;;;5.60;99.90;;;;;;5067676;28;20016;-83
2021/12/09 02:46:15;;;;;;;21.75;16.52;;;5.60;99.90;;;;;;5065504;28;20021;-83
2021/12/09 02:48:42;;;;;;;20.23;16.35;;;6.20;99.90;;;;;;5065192;28;20108;-83
2021/12/09 02:51:07;;;;;;;21.20;16.02;;;5.60;99.90;;;;;;5065692;28;20032;-83
2021/12/09 02:53:34;;;;;;;19.95;15.45;;;6.10;99.90;;;;;;5065871;28;20390;-83
2021/12/09 02:56:00;;;;;;;21.13;17.15;;;5.90;99.90;;;;;;5070406;28;20056;-83
2021/12/09 02:58:25;;;;;;;22.45;17.45;;;6.30;99.90;;;;;;5065395;28;20121;-82
2021/12/09 03:01:12;;;;;;;23.98;16.92;;;5.80;99.90;;;;;;5065423;28;20020;-82
2021/12/09 03:03:46;;;;;;;21.90;16.58;;;5.70;99.90;;;;;;5065270;28;20516;-83
2021/12/09 03:06:12;;;;;;;18.60;15.68;;;5.80;99.90;;;;;;5069782;28;20523;-83
2021/12/09 03:08:40;;;;;;;17.80;15.15;;;6.30;99.90;;;;;;5069544;28;20108;-83
2021/12/09 03:11:09;;;;;;;18.83;15.98;;;5.70;99.90;;;;;;5075737;28;20016;-82
2021/12/09 03:13:35;;;;;;;18.52;15.30;;;5.80;99.90;;;;;;5069685;28;20362;-83
2021/12/09 03:16:02;;;;;;;21.00;15.10;;;6.10;99.90;;;;;;5069267;28;20106;-82
2021/12/09 03:18:28;;;;;;;18.38;15.13;;;5.70;99.90;;;;;;5069257;28;20028;-83
2021/12/09 03:20:53;;;;;;;16.88;14.40;;;5.60;99.90;;;;;;5068744;28;20524;-82
2021/12/09 03:23:19;;;;;;;16.10;13.40;;;6.20;99.90;;;;;;5072659;28;20092;-82
2021/12/09 03:25:45;;;;;;;16.63;13.32;;;6.00;99.90;;;;;;5071463;28;20102;-82
2021/12/09 03:28:11;;;;;;;14.77;11.73;;;6.00;99.90;;;;;;5069161;28;20519;-83
2021/12/09 03:30:37;;;;;;;14.18;11.23;;;5.60;99.90;;;;;;5069143;28;20054;-83
2021/12/09 03:33:02;;;;;;;16.10;11.23;;;5.60;99.90;;;;;;5067741;28;20028;-83
2021/12/09 03:35:29;;;;;;;13.73;10.50;;;6.20;99.90;;;;;;5069913;28;20811;-83
2021/12/09 03:37:54;;;;;;;14.60;10.35;;;5.70;99.90;;;;;;5073763;28;20020;-83
2021/12/09 03:40:20;;;;;;;14.00;10.65;;;6.20;99.90;;;;;;5069166;28;20028;-83
2021/12/09 03:42:46;;;;;;;13.68;9.68;;;5.70;99.90;;;;;;5068930;28;20456;-83
2021/12/09 03:45:13;;;;;;;12.65;9.98;;;5.60;99.90;;;;;;5068825;28;20492;-83
2021/12/09 03:47:39;;;;;;;14.07;10.45;;;6.30;99.90;;;;;;5069500;28;20044;-83
2021/12/09 03:50:08;;;;;;;13.07;10.10;;;6.10;99.90;;;;;;5066138;28;20067;-83
2021/12/09 03:52:34;;;;;;;13.15;9.32;;;5.70;99.90;;;;;;5067451;28;20024;-83
2021/12/09 03:55:00;;;;;;;14.82;10.15;;;5.60;99.90;;;;;;5068406;28;20039;-82
2021/12/09 03:57:25;;;;;;;13.32;10.52;;;6.20;99.90;;;;;;5068576;28;20098;-83
2021/12/09 03:59:53;;;;;;;13.70;10.40;;;5.70;99.90;;;;;;5069066;28;20148;-83
2021/12/09 04:02:20;;;;;;;15.15;11.30;;;6.20;99.90;;;;;;5072126;28;20048;-83
2021/12/09 04:04:46;;;;;;;13.77;10.80;;;5.60;99.90;;;;;;5071204;28;20036;-82
2021/12/09 04:07:11;;;;;;;16.10;12.18;;;6.20;99.90;;;;;;5068411;28;20040;-83
2021/12/09 04:09:38;;;;;;;12.90;11.00;;;6.30;99.90;;;;;;5068302;28;20036;-83
2021/12/09 04:12:04;;;;;;;13.27;10.63;;;5.50;99.90;;;;;;5067361;28;20032;-83
2021/12/09 04:14:30;;;;;;;15.10;10.68;;;5.50;99.90;;;;;;5069340;28;20037;-83
2021/12/09 04:16:56;;;;;;;14.60;10.63;;;5.80;99.90;;;;;;5071960;28;20397;-83
2021/12/09 04:19:22;;;;;;;13.98;10.90;;;6.30;99.90;;;;;;5067819;28;20033;-83
2021/12/09 04:21:47;;;;;;;15.07;11.23;;;5.90;99.90;;;;;;5068049;28;20056;-83
2021/12/09 04:24:15;;;;;;;12.23;10.10;;;5.70;99.90;;;;;;5067800;28;20040;-83
2021/12/09 04:26:45;;;;;;;15.63;9.93;;;5.60;99.90;;;;;;5068208;28;20028;-83
2021/12/09 04:29:12;;;;;;;11.50;9.10;;;6.20;99.90;;;;;;5073549;28;20048;-83
2021/12/09 04:31:39;;;;;;;12.25;9.50;;;6.10;99.90;;;;;;5049848;28;20393;-82
2021/12/09 04:34:06;;;;;;;11.90;8.75;;;5.60;99.90;;;;;;5067434;28;20025;-82
2021/12/09 04:36:32;;;;;;;9.75;8.40;;;5.70;99.90;;;;;;5067806;28;20040;-83
2021/12/09 04:38:58;;;;;;;11.68;8.48;;;5.60;99.90;;;;;;5067879;28;20504;-83
2021/12/09 04:41:24;;;;;;;12.43;8.32;;;5.70;99.90;;;;;;5069829;28;20028;-83
2021/12/09 04:43:50;;;;;;;10.43;8.15;;;6.20;99.90;;;;;;5071995;28;20119;-83
2021/12/09 04:46:16;;;;;;;11.38;8.10;;;5.70;99.90;;;;;;5050012;28;20047;-83
2021/12/09 04:48:43;;;;;;;12.88;8.25;;;5.70;99.90;;;;;;5067250;28;20100;-83
2021/12/09 04:51:09;;;;;;;12.30;8.02;;;5.90;99.90;;;;;;5066315;28;20021;-82
2021/12/09 04:53:35;;;;;;;10.95;7.88;;;6.10;99.90;;;;;;5068098;28;20945;-83
2021/12/09 04:56:00;;;;;;;9.02;7.53;;;6.20;99.90;;;;;;5073291;28;20029;-83
2021/12/09 04:58:27;;;;;;;9.15;7.25;;;5.70;99.90;;;;;;5067625;28;20032;-83
2021/12/09 05:00:55;;;;;;;11.38;7.18;;;5.80;99.90;;;;;;5067329;28;20345;-83
2021/12/09 05:03:21;;;;;;;11.15;7.38;;;5.60;99.90;;;;;;5066882;28;20568;-83
2021/12/09 05:05:50;;;;;;;10.43;7.18;;;6.30;99.90;;;;;;5049968;28;20107;-83
2021/12/09 05:08:18;;;;;;;7.53;6.45;;;5.90;99.90;;;;;;5071256;28;20481;-83
2021/12/09 05:10:56;;;;;;;10.00;6.57;;;6.20;99.90;;;;;;5070161;28;20028;-83
2021/12/09 05:13:24;;;;;;;9.13;5.75;;;5.80;99.90;;;;;;5067294;28;20020;-83
2021/12/09 05:15:50;;;;;;;8.05;6.00;;;6.20;99.90;;;;;;5066849;28;20123;-82
2021/12/09 05:18:17;;;;;;;11.07;6.22;;;6.10;99.90;;;;;;5066559;28;20032;-83
2021/12/09 05:20:43;;;;;;;6.45;5.30;;;5.60;99.90;;;;;;5066893;28;20044;-82
2021/12/09 05:23:09;;;;;;;8.73;5.63;;;6.10;99.90;;;;;;5072648;28;20028;-83
2021/12/09 05:25:35;;;;;;;7.82;5.65;;;6.00;99.90;;;;;;5067629;28;20024;-83
2021/12/09 05:28:01;;;;;;;12.25;5.65;;;5.60;99.90;;;;;;5066180;28;20493;-83
2021/12/09 05:30:38;;;;;;;9.57;5.85;;;5.60;99.90;;;;;;5065157;28;20060;-82
2021/12/09 05:33:05;;;;;;;11.88;5.32;;;6.10;99.90;;;;;;5066459;28;20028;-83
2021/12/09 05:35:31;;;;;;;8.20;5.38;;;5.80;99.90;;;;;;5067922;28;20048;-82
2021/12/09 05:37:57;;;;;;;8.95;6.03;;;5.50;99.90;;;;;;5072111;28;20469;-82
2021/12/09 05:40:23;;;;;;;9.32;6.07;;;5.90;99.90;;;;;;5066620;28;20093;-83
2021/12/09 05:42:49;;;;;;;7.53;5.60;;;5.40;99.90;;;;;;5066161;28;20453;-83
2021/12/09 05:45:14;;;;;;;7.65;6.22;;;6.10;99.90;;;;;;5066401;28;20039;-82
2021/12/09 05:47:40;;;;;;;12.55;6.65;;;5.90;99.90;;;;;;5066271;28;20021;-83
2021/12/09 05:50:08;;;;;;;9.10;6.25;;;5.50;99.90;;;;;;5073141;28;20067;-83
2021/12/09 05:52:34;;;;;;;9.00;5.90;;;5.50;99.90;;;;;;5066830;28;20033;-82
2021/12/09 05:54:59;;;;;;;10.38;6.22;;;6.10;99.90;;;;;;5066193;28;20123;-83
2021/12/09 05:57:25;;;;;;;8.75;6.10;;;6.10;99.90;;;;;;5066109;28;20020;-83
2021/12/09 05:59:54;;;;;;;8.13;6.00;;;6.00;99.90;;;;;;5066230;28;20032;-83
2021/12/09 06:02:19;;;;;;;11.18;7.78;;;5.50;99.90;;;;;;5069156;28;20401;-83
2021/12/09 06:04:45;;;;;;;18.17;12.43;;;5.50;99.90;;;;;;5069374;28;20028;-82
2021/12/09 06:07:12;;;;;;;25.88;15.52;;;6.10;99.90;;;;;;5048110;28;20033;-83
2021/12/09 06:09:38;;;;;;;29.25;17.02;;;5.50;99.90;;;;;;5064586;28;20032;-82
2021/12/09 06:12:05;;;;;;;25.83;13.82;;;6.10;99.90;;;;;;5065887;28;20043;-83
2021/12/09 06:14:31;;;;;;;25.95;12.30;;;5.60;99.90;;;;;;5067020;28;20115;-83
2021/12/09 06:16:56;;;;;;;19.58;10.85;;;6.00;99.90;;;;;;5070933;28;20131;-83
2021/12/09 06:19:22;;;;;;;27.95;15.38;;;5.60;99.90;;;;;;5066262;28;20037;-83
2021/12/09 06:21:49;;;;;;;130.30;49.63;;;5.60;99.90;;;;;;5065853;28;20048;-82
2021/12/09 06:24:15;;;;;;;74.13;31.73;;;6.10;99.90;;;;;;5065646;28;20101;-83
2021/12/09 06:26:41;;;;;;;131.40;52.10;;;6.20;99.90;;;;;;5066070;28;20481;-83
2021/12/09 06:29:07;;;;;;;38.67;18.65;;;5.60;99.90;;;;;;5056218;28;20057;-82
2021/12/09 06:31:34;;;;;;;25.77;12.75;;;6.20;99.90;;;;;;5044263;28;20322;-82
2021/12/09 06:34:00;;;;;;;29.13;16.40;;;5.50;99.90;;;;;;5045940;28;20036;-83
2021/12/09 06:36:26;;;;;;;69.07;32.75;;;5.60;99.90;;;;;;5045443;28;20170;-83
2021/12/09 06:38:51;;;;;;;51.90;26.63;;;5.60;99.90;;;;;;5045058;28;20028;-83
2021/12/09 06:41:17;;;;;;;27.83;15.30;;;5.70;99.90;;;;;;5049520;28;20385;-83
2021/12/09 06:43:43;;;;;;;20.65;13.38;;;5.70;99.90;;;;;;5048118;28;20029;-83
2021/12/09 06:46:12;;;;;;;18.65;11.00;;;5.60;99.90;;;;;;5045637;28;20508;-83
2021/12/09 06:48:39;;;;;;;24.35;14.50;;;5.50;99.90;;;;;;5043950;28;20516;-82
2021/12/09 06:51:08;;;;;;;27.13;15.82;;;5.50;99.90;;;;;;5045538;28;20021;-83
2021/12/09 06:53:34;;;;;;;18.65;12.63;;;5.70;99.90;;;;;;5046087;28;20040;-83
2021/12/09 06:56:01;;;;;;;14.45;11.07;;;5.60;99.90;;;;;;5051397;28;20031;-83
2021/12/09 06:58:26;;;;;;;12.48;8.18;;;5.60;99.90;;;;;;5045014;28;20108;-83
2021/12/09 07:00:54;;;;;;;11.65;8.00;;;5.60;99.90;;;;;;5044738;28;20100;-83
2021/12/09 07:03:21;;;;;;;10.70;8.10;;;5.40;99.90;;;;;;5045158;28;20025;-83
2021/12/09 07:05:49;;;;;;;13.88;10.20;;;5.50;99.90;;;;;;5045990;28;20040;-86
2021/12/09 07:08:15;;;;;;;12.30;9.27;;;5.60;99.90;;;;;;5049976;28;20025;-85
2021/12/09 07:10:41;;;;;;;11.73;8.40;;;5.60;99.90;;;;;;5047149;28;20572;-84
2021/12/09 07:13:07;;;;;;;14.68;11.13;;;5.50;99.90;;;;;;5044756;28;20448;-86
2021/12/09 07:15:33;;;;;;;12.48;9.32;;;5.90;99.90;;;;;;5045474;28;20045;-86
2021/12/09 07:18:00;;;;;;;14.07;11.15;;;5.60;99.90;;;;;;5027553;28;20547;-86
2021/12/09 07:20:27;;;;;;;19.10;14.93;;;5.60;99.90;;;;;;5047465;28;20397;-84
2021/12/09 07:22:53;;;;;;;16.77;14.82;;;5.60;99.90;;;;;;5049978;28;20068;-85
2021/12/09 07:25:20;;;;;;;11.68;10.07;;;5.70;99.90;;;;;;5044932;28;20033;-85
2021/12/09 07:27:46;;;;;;;11.52;8.60;;;5.60;99.90;;;;;;5047987;28;20052;-85
2021/12/09 07:30:14;;;;;;;10.73;7.15;;;5.70;99.90;;;;;;5064903;28;20028;-86
2021/12/09 07:32:40;;;;;;;12.82;7.65;;;5.70;99.90;;;;;;5064882;28;20030;-86
2021/12/09 07:35:07;;;;;;;9.20;6.95;;;5.70;99.90;;;;;;5071196;28;20036;-85
2021/12/09 07:37:34;;;;;;;11.15;7.88;;;5.80;99.90;;;;;;5063382;28;20051;-85
2021/12/09 07:40:00;;;;;;;11.77;8.68;;;6.00;99.90;;;;;;5065017;28;20416;-85
2021/12/09 07:42:25;;;;;;;10.25;8.38;;;6.50;99.90;;;;;;5064486;28;20123;-85
2021/12/09 07:44:52;;;;;;;10.15;6.47;;;5.90;99.90;;;;;;5064986;28;20035;-85
2021/12/09 07:47:17;;;;;;;8.50;6.68;;;6.50;99.90;;;;;;5068998;28;20477;-85
2021/12/09 07:49:44;;;;;;;10.93;6.43;;;6.40;99.90;;;;;;5065713;28;20090;-85
2021/12/09 07:52:10;;;;;;;10.27;6.20;;;5.90;99.90;;;;;;5068644;28;20082;-85
2021/12/09 07:54:36;;;;;;;9.63;6.82;;;5.80;99.90;;;;;;5068081;28;20110;-85
2021/12/09 07:57:01;;;;;;;6.97;5.78;;;5.90;99.90;;;;;;5067176;28;20578;-85
2021/12/09 07:59:27;;;;;;;8.45;6.25;;;5.90;99.90;;;;;;5069836;28;20100;-85
2021/12/09 08:01:53;;;;;;;12.20;6.63;;;5.80;99.90;;;;;;5072696;28;20103;-85
2021/12/09 08:04:19;;;;;;;8.32;6.88;;;6.40;99.90;;;;;;5067636;28;20089;-85
2021/12/09 08:06:45;;;;;;;9.88;6.53;;;6.50;99.90;;;;;;5066572;28;20170;-85
2021/12/09 08:09:10;;;;;;;10.98;7.72;;;6.20;99.90;;;;;;5068136;28;20029;-84
2021/12/09 08:11:38;;;;;;;10.00;8.10;;;5.80;99.90;;;;;;5036422;28;20040;-85
2021/12/09 08:14:11;;;;;;;9.20;8.07;;;6.20;99.90;;;;;;5074227;28;20029;-85
2021/12/09 08:16:38;;;;;;;11.90;9.65;;;5.80;99.90;;;;;;5067756;28;20040;-85
2021/12/09 08:19:09;;;;;;;9.43;8.23;;;6.30;99.90;;;;;;5068980;28;20548;-84
2021/12/09 08:21:36;;;;;;;10.20;7.68;;;6.50;99.90;;;;;;5052413;28;20025;-84
2021/12/09 08:24:07;;;;;;;10.35;7.60;;;6.10;99.90;;;;;;5042767;28;20025;-84
2021/12/09 08:26:33;;;;;;;9.07;7.05;;;6.30;99.90;;;;;;5034286;28;20477;-83
2021/12/09 08:28:59;;;;;;;9.82;6.78;;;6.50;99.90;;;;;;5038038;28;20049;-86
2021/12/09 08:31:29;;;;;;;8.38;6.35;;;6.40;99.90;;;;;;5038199;28;20080;-85
2021/12/09 08:33:55;;;;;;;11.20;6.68;;;6.40;99.90;;;;;;5038354;28;20021;-84
2021/12/09 08:36:21;;;;;;;11.73;6.78;;;6.60;99.90;;;;;;5038302;28;20413;-85
2021/12/09 08:38:47;;;;;;;10.02;6.20;;;6.50;99.90;;;;;;5035383;28;20022;-84
2021/12/09 08:41:15;;;;;;;8.15;6.20;;;6.40;99.90;;;;;;5036792;28;20500;-84
2021/12/09 08:43:40;;;;;;;8.63;6.38;;;6.50;99.90;;;;;;5048249;28;20031;-84
2021/12/09 08:46:06;;;;;;;13.02;7.50;;;6.40;99.90;;;;;;5041895;28;20409;-86
2021/12/09 08:48:33;;;;;;;12.07;8.07;;;6.50;99.90;;;;;;5038429;28;20091;-85
2021/12/09 08:50:58;;;;;;;11.55;8.30;;;6.80;99.90;;;;;;5050094;28;20033;-84
2021/12/09 08:53:25;;;;;;;10.70;7.25;;;6.70;99.90;;;;;;5035529;28;20039;-85
2021/12/09 08:55:52;;;;;;;8.43;5.90;;;6.30;99.90;;;;;;5037933;28;20037;-84
2021/12/09 08:58:18;;;;;;;9.05;5.63;;;6.30;99.90;;;;;;5038486;28;20056;-86
2021/12/09 09:00:44;;;;;;;8.80;5.78;;;6.80;99.90;;;;;;5038024;28;20061;-85
2021/12/09 09:03:11;;;;;;;10.32;5.55;;;6.30;99.90;;;;;;5034966;28;20036;-84
2021/12/09 09:05:38;;;;;;;6.75;4.88;;;7.10;99.90;;;;;;5051669;28;20493;-93
2021/12/09 09:08:05;;;;;;;7.78;5.72;;;7.00;99.90;;;;;;5030856;28;20028;-85
2021/12/09 09:10:34;;;;;;;9.45;5.70;;;6.60;99.90;;;;;;5037953;28;20029;-89
2021/12/09 09:13:00;;;;;;;9.93;6.15;;;6.40;99.90;;;;;;5018903;28;20371;-85
2021/12/09 09:15:28;;;;;;;10.75;6.63;;;6.90;99.90;;;;;;5051593;28;20037;-83
2021/12/09 09:17:57;;;;;;;18.90;10.85;;;6.40;99.90;;;;;;5040522;28;20040;-95
2021/12/09 09:20:27;;;;;;;11.68;8.90;;;6.50;99.90;;;;;;5043073;28;20036;-85
2021/12/09 09:22:53;;;;;;;7.43;6.30;;;7.00;99.90;;;;;;5040648;28;20504;-93
2021/12/09 09:25:24;;;;;;;10.38;6.97;;;7.30;99.90;;;;;;5029750;28;20124;-88
2021/12/09 09:27:50;;;;;;;8.50;6.13;;;7.10;99.90;;;;;;5039749;28;20049;-93
2021/12/09 09:30:18;;;;;;;18.90;9.48;;;7.20;99.90;;;;;;5041663;28;20029;-93
2021/12/09 09:32:46;;;;;;;9.65;6.95;;;6.80;99.90;;;;;;5043532;28;20049;-85
2021/12/09 09:35:11;;;;;;;13.73;10.05;;;7.20;99.90;;;;;;5018845;28;20037;-85
2021/12/09 09:37:38;;;;;;;15.82;10.20;;;7.20;99.90;;;;;;5038645;28;20401;-85
2021/12/09 09:40:09;;;;;;;13.30;8.85;;;7.00;99.90;;;;;;5038029;28;20041;-85
2021/12/09 09:45:06;;;;;;;9.65;5.95;;;7.10;99.90;;;;;;5036995;28;20124;-85
2021/12/09 09:47:32;;;;;;;9.35;6.35;;;6.60;99.90;;;;;;5034742;28;20025;-86
2021/12/09 09:49:58;;;;;;;9.75;7.38;;;7.10;99.90;;;;;;5037313;28;20022;-86
2021/12/09 09:52:24;;;;;;;8.73;7.63;;;6.70;99.90;;;;;;5037477;28;20040;-86
2021/12/09 09:54:52;;;;;;;10.15;9.13;;;7.30;99.90;;;;;;5037799;28;20033;-88
2021/12/09 09:57:18;;;;;;;10.40;7.65;;;7.30;99.90;;;;;;5038659;28;20068;-91
2021/12/09 09:59:44;;;;;;;10.50;7.88;;;7.20;99.90;;;;;;5018169;28;20057;-93
2021/12/09 10:02:11;;;;;;;9.10;6.85;;;7.40;99.90;;;;;;5019938;28;20121;-90
2021/12/09 10:04:46;;;;;;;11.30;6.03;;;7.10;99.90;;;;;;5052418;28;20021;-90
2021/12/09 10:07:15;;;;;;;10.23;6.05;;;7.10;99.90;;;;;;5041441;28;20051;-95
2021/12/09 10:09:41;;;;;;;9.25;5.10;;;7.70;99.90;;;;;;5031995;28;20409;-91
2021/12/09 10:12:07;;;;;;;8.45;4.40;;;7.80;99.90;;;;;;5051724;28;20032;-94
2021/12/09 10:14:35;;;;;;;8.75;4.90;;;8.00;99.90;;;;;;5051233;28;20028;-91
2021/12/09 10:17:03;;;;;;;7.78;4.32;;;8.70;99.90;;;;;;5073229;28;20107;-92
2021/12/09 10:19:28;;;;;;;7.18;4.20;;;8.10;99.90;;;;;;5048564;28;20028;-95
2021/12/09 10:22:25;;;;;;;5.85;3.50;;;7.90;99.90;;;;;;5049530;28;20396;-88
2021/12/09 10:24:54;;;;;;;7.15;3.90;;;8.40;99.90;;;;;;5046131;28;20048;-88
2021/12/09 10:27:28;;;;;;;6.05;4.22;;;8.50;99.90;;;;;;5066647;28;20040;-88
2021/12/09 10:30:02;;;;;;;7.32;3.72;;;7.70;99.90;;;;;;5048099;28;20028;-86
2021/12/09 10:32:32;;;;;;;9.05;4.07;;;7.70;99.90;;;;;;5068097;28;20017;-86
2021/12/09 10:35:24;;;;;;;7.38;4.55;;;8.20;99.90;;;;;;5071018;28;20117;-86
2021/12/09 10:37:51;;;;;;;4.70;3.00;;;7.90;99.90;;;;;;5064560;28;20048;-86
2021/12/09 10:40:28;;;;;;;4.72;3.25;;;8.10;99.90;;;;;;5047984;28;20515;-86
2021/12/09 10:43:03;;;;;;;6.72;3.10;;;7.60;99.90;;;;;;5048723;28;20024;-95
2021/12/09 10:45:36;;;;;;;5.20;2.53;;;7.50;99.90;;;;;;5061687;28;20055;-94
2021/12/09 10:48:25;;;;;;;6.13;2.50;;;7.40;99.90;;;;;;5053754;28;20028;-95
2021/12/09 10:56:03;;;;;;;20.00;4.28;;;7.90;99.90;;;;;;5070088;28;20161;-86
2021/12/09 10:58:38;;;;;;;6.60;2.55;;;7.60;99.90;;;;;;5065914;28;20029;-87
2021/12/09 11:01:12;;;;;;;4.28;2.33;;;7.60;99.90;;;;;;5048013;28;20226;-87
2021/12/09 11:03:50;;;;;;;18.15;3.70;;;8.10;99.90;;;;;;5066211;28;20032;-87
2021/12/09 11:06:18;;;;;;;4.80;2.08;;;8.00;99.90;;;;;;5064224;28;20028;-87
2021/12/09 11:08:49;;;;;;;3.53;2.08;;;8.60;99.90;;;;;;5066013;28;20060;-85
2021/12/09 11:11:16;;;;;;;4.22;2.08;;;8.10;99.90;;;;;;5052800;28;20032;-83
2021/12/09 11:13:52;;;;;;;2.95;2.00;;;8.10;99.90;;;;;;5068488;28;20035;-86
2021/12/09 11:16:26;;;;;;;7.13;2.45;;;8.10;99.90;;;;;;5043731;28;20037;-86
2021/12/09 11:19:15;;;;;;;4.97;1.83;;;8.10;99.90;;;;;;5022518;28;20029;-89
2021/12/09 11:21:45;;;;;;;5.47;1.80;;;7.90;99.90;;;;;;5023647;28;20033;-86
2021/12/09 11:24:18;;;;;;;4.72;1.60;;;8.20;99.90;;;;;;5024314;28;20033;-87
2021/12/09 11:26:57;;;;;;;5.10;1.85;;;8.10;99.90;;;;;;5031248;28;20068;-95
2021/12/09 11:29:33;;;;;;;3.75;1.42;;;7.50;99.90;;;;;;5036418;28;20580;-90
2021/12/09 11:34:56;;;;;;;4.93;1.70;;;7.40;99.90;;;;;;5050271;28;20044;-91
2021/12/09 11:37:38;;;;;;;4.82;2.30;;;8.00;99.90;;;;;;5057829;28;20083;-91
2021/12/09 11:40:34;;;;;;;22.55;9.68;;;7.20;99.90;;;;;;5048185;28;20041;-92
2021/12/09 11:43:02;;;;;;;8.38;2.75;;;7.20;99.90;;;;;;5035563;28;20021;-92
2021/12/09 11:45:33;;;;;;;5.05;2.20;;;7.50;99.90;;;;;;5051888;28;20087;-93
2021/12/09 11:48:00;;;;;;;5.82;1.48;;;7.40;99.90;;;;;;5051760;28;20025;-83
2021/12/09 11:50:30;;;;;;;6.57;2.00;;;7.10;99.90;;;;;;5036100;28;20037;-82
2021/12/09 11:52:58;;;;;;;6.20;2.83;;;7.80;99.90;;;;;;5040333;28;20064;-91
2021/12/09 11:55:35;;;;;;;5.13;2.42;;;7.90;99.90;;;;;;5031421;28;20094;-91
2021/12/09 11:58:10;;;;;;;4.07;1.90;;;8.10;99.90;;;;;;5045506;28;20619;-91
2021/12/09 12:07:19;;;;;;;3.97;2.22;;;7.90;99.90;;;;;;5042644;28;20075;-84
2021/12/09 12:15:26;;;;;;;3.83;1.55;;;8.10;99.90;;;;;;5039892;28;20406;-84
2021/12/09 12:18:10;;;;;;;6.50;2.03;;;8.50;99.90;;;;;;5035697;28;20017;-84
2021/12/09 12:20:42;;;;;;;6.00;2.35;;;7.80;99.90;;;;;;5052611;28;20107;-84
2021/12/09 12:23:38;;;;;;;15.57;7.78;;;8.10;99.90;;;;;;5051035;28;20029;-83
2021/12/09 12:40:19;;;;;;;6.57;2.08;;;7.80;99.90;;;;;;4969730;28;20054;-83
2021/12/09 12:43:10;;;;;;;7.82;2.28;;;8.20;99.90;;;;;;4959251;28;20317;-83
2021/12/09 12:54:32;;;;;;;6.32;2.00;;;7.90;99.90;;;;;;4967348;28;20073;-83
2021/12/09 12:57:02;;;;;;;5.95;3.25;;;8.20;99.90;;;;;;4917747;29;20091;-82
2021/12/09 12:59:36;;;;;;;5.90;2.13;;;8.20;99.90;;;;;;4931841;29;20491;-84
2021/12/09 13:10:30;;;;;;;6.10;2.30;;;11.20;99.90;;;;;;4929830;29;20254;-84
2021/12/09 13:16:04;;;;;;;5.57;2.28;;;11.10;99.90;;;;;;4930767;29;20051;-84
2021/12/09 13:19:06;;;;;;;6.95;1.70;;;13.50;99.90;;;;;;4931013;29;20107;-83
2021/12/09 13:21:37;;;;;;;4.07;1.70;;;15.60;99.90;;;;;;4930961;29;20048;-84
2021/12/09 13:27:43;;;;;;;4.90;1.85;;;17.30;99.90;;;;;;4932351;29;20027;-85
2021/12/09 13:48:45;;;;;;;4.70;3.28;;;17.90;99.90;;;;;;5037952;28;20107;-85
2021/12/09 13:54:05;;;;;;;9.52;4.43;;;17.20;99.90;;;;;;5047253;28;20036;-84
2021/12/09 13:54:30;;;;;;;4.82;2.47;;;16.60;99.90;;;;;;5019077;28;20033;-85
2021/12/09 13:57:04;;;;;;;5.00;1.80;;;14.90;99.90;;;;;;5027670;28;20426;-84
2021/12/09 13:59:34;;;;;;;3.78;1.95;;;14.40;99.90;;;;;;5047942;28;20037;-84
2021/12/09 14:02:12;;;;;;;8.02;2.78;;;13.80;99.90;;;;;;5051964;28;20390;-84
2021/12/09 14:04:38;;;;;;;6.90;3.28;;;13.40;99.90;;;;;;5047272;28;20400;-84
2021/12/09 14:07:21;;;;;;;5.47;2.17;;;15.00;99.90;;;;;;5046718;28;20105;-84
2021/12/09 14:10:17;;;;;;;7.40;2.50;;;15.80;99.90;;;;;;5046444;28;20115;-85
2021/12/09 14:12:50;;;;;;;6.40;3.00;;;15.50;99.90;;;;;;5029953;28;20436;-84